sensor_id;sensor_type;location;lat;lon;timestamp;P1;durP1;ratioP1;P2;durP2;ratioP2
56269;SDS011;42176;43.240;27.880;2023-12-20T00:01:30;9.57;;;5.07;;
56269;SDS011;42176;43.240;27.880;2023-12-20T00:03:31;5.72;;;3.08;;
56269;SDS011;42176;43.240;27.880;2023-12-20T00:05:31;5.57;;;3.22;;
56269;SDS011;42176;43.240;27.880;2023-12-20T00:07:32;4.28;;;2.40;;
56269;SDS011;42176;43.240;27.880;2023-12-20T00:09:33;12.30;;;6.47;;
56269;SDS011;42176;43.240;27.880;2023-12-20T00:11:33;9.35;;;4.97;;
56269;SDS011;42176;43.240;27.880;2023-12-20T00:13:34;6.32;;;2.72;;
56269;SDS011;42176;43.240;27.880;2023-12-20T00:15:34;13.05;;;4.85;;
56269;SDS011;42176;43.240;27.880;2023-12-20T00:17:35;8.43;;;3.70;;
56269;SDS011;42176;43.240;27.880;2023-12-20T00:19:36;11.07;;;6.53;;
56269;SDS011;42176;43.240;27.880;2023-12-20T00:21:36;17.58;;;8.18;;
56269;SDS011;42176;43.240;27.880;2023-12-20T00:23:37;24.08;;;8.50;;
56269;SDS011;42176;43.240;27.880;2023-12-20T00:25:37;10.18;;;4.30;;
56269;SDS011;42176;43.240;27.880;2023-12-20T00:27:38;13.35;;;5.47;;
56269;SDS011;42176;43.240;27.880;2023-12-20T00:29:38;16.30;;;7.70;;
56269;SDS011;42176;43.240;27.880;2023-12-20T00:31:39;12.20;;;6.72;;
56269;SDS011;42176;43.240;27.880;2023-12-20T00:33:39;12.73;;;4.72;;
56269;SDS011;42176;43.240;27.880;2023-12-20T00:35:43;10.43;;;5.10;;
56269;SDS011;42176;43.240;27.880;2023-12-20T00:37:44;6.72;;;3.88;;
56269;SDS011;42176;43.240;27.880;2023-12-20T00:39:44;13.68;;;6.10;;
56269;SDS011;42176;43.240;27.880;2023-12-20T00:41:45;8.55;;;6.22;;
56269;SDS011;42176;43.240;27.880;2023-12-20T00:43:45;13.27;;;6.70;;
56269;SDS011;42176;43.240;27.880;2023-12-20T00:45:46;10.15;;;4.30;;
56269;SDS011;42176;43.240;27.880;2023-12-20T00:47:46;9.60;;;4.53;;
56269;SDS011;42176;43.240;27.880;2023-12-20T00:49:47;6.38;;;3.95;;
56269;SDS011;42176;43.240;27.880;2023-12-20T00:51:48;8.43;;;4.65;;
56269;SDS011;42176;43.240;27.880;2023-12-20T00:53:50;9.05;;;4.43;;
56269;SDS011;42176;43.240;27.880;2023-12-20T00:55:54;4.90;;;3.33;;
56269;SDS011;42176;43.240;27.880;2023-12-20T00:57:55;8.77;;;4.85;;
56269;SDS011;42176;43.240;27.880;2023-12-20T00:59:56;5.85;;;3.17;;
56269;SDS011;42176;43.240;27.880;2023-12-20T01:01:56;8.75;;;4.75;;
56269;SDS011;42176;43.240;27.880;2023-12-20T01:03:57;7.65;;;3.13;;
56269;SDS011;42176;43.240;27.880;2023-12-20T01:05:57;8.77;;;3.63;;
56269;SDS011;42176;43.240;27.880;2023-12-20T01:07:58;9.60;;;4.45;;
56269;SDS011;42176;43.240;27.880;2023-12-20T01:09:58;7.53;;;4.45;;
56269;SDS011;42176;43.240;27.880;2023-12-20T01:11:59;7.78;;;3.28;;
56269;SDS011;42176;43.240;27.880;2023-12-20T01:13:59;4.65;;;3.15;;
56269;SDS011;42176;43.240;27.880;2023-12-20T01:16:00;3.08;;;2.28;;
56269;SDS011;42176;43.240;27.880;2023-12-20T01:18:01;3.40;;;2.30;;
56269;SDS011;42176;43.240;27.880;2023-12-20T01:20:02;3.80;;;3.45;;
56269;SDS011;42176;43.240;27.880;2023-12-20T01:22:02;4.72;;;2.80;;
56269;SDS011;42176;43.240;27.880;2023-12-20T01:24:03;4.55;;;2.78;;
56269;SDS011;42176;43.240;27.880;2023-12-20T01:26:04;4.78;;;3.05;;
56269;SDS011;42176;43.240;27.880;2023-12-20T01:28:05;8.25;;;3.47;;
56269;SDS011;42176;43.240;27.880;2023-12-20T01:30:06;1.42;;;1.13;;
56269;SDS011;42176;43.240;27.880;2023-12-20T01:32:07;4.97;;;2.55;;
56269;SDS011;42176;43.240;27.880;2023-12-20T01:34:07;4.25;;;2.40;;
56269;SDS011;42176;43.240;27.880;2023-12-20T01:36:08;3.45;;;2.72;;
56269;SDS011;42176;43.240;27.880;2023-12-20T01:38:09;9.10;;;4.57;;
56269;SDS011;42176;43.240;27.880;2023-12-20T01:40:09;6.82;;;4.40;;
56269;SDS011;42176;43.240;27.880;2023-12-20T01:42:10;15.93;;;5.55;;
56269;SDS011;42176;43.240;27.880;2023-12-20T01:44:11;5.00;;;2.80;;
56269;SDS011;42176;43.240;27.880;2023-12-20T01:46:11;6.90;;;3.92;;
56269;SDS011;42176;43.240;27.880;2023-12-20T01:48:12;9.07;;;4.60;;
56269;SDS011;42176;43.240;27.880;2023-12-20T01:50:16;5.40;;;2.67;;
56269;SDS011;42176;43.240;27.880;2023-12-20T01:52:18;3.88;;;2.92;;
56269;SDS011;42176;43.240;27.880;2023-12-20T01:54:20;5.63;;;2.65;;
56269;SDS011;42176;43.240;27.880;2023-12-20T01:56:21;4.70;;;3.20;;
56269;SDS011;42176;43.240;27.880;2023-12-20T01:58:22;5.82;;;3.58;;
56269;SDS011;42176;43.240;27.880;2023-12-20T02:00:23;5.22;;;3.58;;
56269;SDS011;42176;43.240;27.880;2023-12-20T02:02:26;3.00;;;2.47;;
56269;SDS011;42176;43.240;27.880;2023-12-20T02:06:29;5.55;;;2.55;;
56269;SDS011;42176;43.240;27.880;2023-12-20T02:08:34;4.07;;;2.63;;
56269;SDS011;42176;43.240;27.880;2023-12-20T02:10:34;2.67;;;2.10;;
56269;SDS011;42176;43.240;27.880;2023-12-20T02:12:35;4.18;;;3.13;;
56269;SDS011;42176;43.240;27.880;2023-12-20T02:14:36;7.88;;;3.50;;
56269;SDS011;42176;43.240;27.880;2023-12-20T02:16:36;4.78;;;3.38;;
56269;SDS011;42176;43.240;27.880;2023-12-20T02:18:37;6.15;;;3.97;;
56269;SDS011;42176;43.240;27.880;2023-12-20T02:20:38;7.03;;;3.63;;
56269;SDS011;42176;43.240;27.880;2023-12-20T02:22:38;9.43;;;4.03;;
56269;SDS011;42176;43.240;27.880;2023-12-20T02:24:39;7.40;;;4.82;;
56269;SDS011;42176;43.240;27.880;2023-12-20T02:26:40;8.00;;;4.93;;
56269;SDS011;42176;43.240;27.880;2023-12-20T02:28:41;3.13;;;1.77;;
56269;SDS011;42176;43.240;27.880;2023-12-20T02:30:41;2.92;;;2.08;;
56269;SDS011;42176;43.240;27.880;2023-12-20T02:32:42;4.57;;;1.98;;
56269;SDS011;42176;43.240;27.880;2023-12-20T02:34:42;2.97;;;2.38;;
56269;SDS011;42176;43.240;27.880;2023-12-20T02:36:43;2.53;;;1.75;;
56269;SDS011;42176;43.240;27.880;2023-12-20T02:38:43;3.67;;;2.45;;
56269;SDS011;42176;43.240;27.880;2023-12-20T02:40:44;4.18;;;2.45;;
56269;SDS011;42176;43.240;27.880;2023-12-20T02:42:44;4.45;;;2.47;;
56269;SDS011;42176;43.240;27.880;2023-12-20T02:44:45;2.22;;;1.38;;
56269;SDS011;42176;43.240;27.880;2023-12-20T02:46:45;9.88;;;3.35;;
56269;SDS011;42176;43.240;27.880;2023-12-20T02:48:46;2.97;;;1.73;;
56269;SDS011;42176;43.240;27.880;2023-12-20T02:50:47;2.50;;;2.08;;
56269;SDS011;42176;43.240;27.880;2023-12-20T02:52:49;2.72;;;2.40;;
56269;SDS011;42176;43.240;27.880;2023-12-20T02:54:49;0.60;;;0.60;;
56269;SDS011;42176;43.240;27.880;2023-12-20T02:56:50;3.05;;;1.63;;
56269;SDS011;42176;43.240;27.880;2023-12-20T02:58:50;1.65;;;1.25;;
56269;SDS011;42176;43.240;27.880;2023-12-20T03:00:51;1.95;;;1.50;;
56269;SDS011;42176;43.240;27.880;2023-12-20T03:02:51;3.22;;;1.92;;
56269;SDS011;42176;43.240;27.880;2023-12-20T03:04:52;4.43;;;2.17;;
56269;SDS011;42176;43.240;27.880;2023-12-20T03:06:52;3.60;;;1.60;;
56269;SDS011;42176;43.240;27.880;2023-12-20T03:08:53;2.40;;;1.95;;
56269;SDS011;42176;43.240;27.880;2023-12-20T03:10:53;3.25;;;1.40;;
56269;SDS011;42176;43.240;27.880;2023-12-20T03:12:54;3.05;;;1.35;;
56269;SDS011;42176;43.240;27.880;2023-12-20T03:14:54;2.70;;;1.38;;
56269;SDS011;42176;43.240;27.880;2023-12-20T03:16:55;1.90;;;1.45;;
56269;SDS011;42176;43.240;27.880;2023-12-20T03:18:56;2.45;;;1.70;;
56269;SDS011;42176;43.240;27.880;2023-12-20T03:20:56;6.30;;;2.67;;
56269;SDS011;42176;43.240;27.880;2023-12-20T03:22:57;1.92;;;1.67;;
56269;SDS011;42176;43.240;27.880;2023-12-20T03:24:57;8.52;;;2.20;;
56269;SDS011;42176;43.240;27.880;2023-12-20T03:26:58;4.32;;;2.17;;
56269;SDS011;42176;43.240;27.880;2023-12-20T03:28:59;8.13;;;3.83;;
56269;SDS011;42176;43.240;27.880;2023-12-20T03:30:59;4.60;;;2.03;;
56269;SDS011;42176;43.240;27.880;2023-12-20T03:33:00;5.60;;;2.55;;
56269;SDS011;42176;43.240;27.880;2023-12-20T03:35:01;2.95;;;2.00;;
56269;SDS011;42176;43.240;27.880;2023-12-20T03:37:01;2.88;;;1.38;;
56269;SDS011;42176;43.240;27.880;2023-12-20T03:39:02;3.70;;;2.40;;
56269;SDS011;42176;43.240;27.880;2023-12-20T03:41:04;8.77;;;4.45;;
56269;SDS011;42176;43.240;27.880;2023-12-20T03:43:04;7.40;;;3.10;;
56269;SDS011;42176;43.240;27.880;2023-12-20T03:45:05;16.08;;;6.50;;
56269;SDS011;42176;43.240;27.880;2023-12-20T03:47:06;8.13;;;4.40;;
56269;SDS011;42176;43.240;27.880;2023-12-20T03:49:07;15.75;;;6.60;;
56269;SDS011;42176;43.240;27.880;2023-12-20T03:51:07;7.30;;;4.72;;
56269;SDS011;42176;43.240;27.880;2023-12-20T03:53:08;9.05;;;4.57;;
56269;SDS011;42176;43.240;27.880;2023-12-20T03:55:08;5.13;;;3.28;;
56269;SDS011;42176;43.240;27.880;2023-12-20T03:57:09;8.52;;;4.45;;
56269;SDS011;42176;43.240;27.880;2023-12-20T03:59:10;5.90;;;2.80;;
56269;SDS011;42176;43.240;27.880;2023-12-20T04:01:10;3.50;;;2.67;;
56269;SDS011;42176;43.240;27.880;2023-12-20T04:03:14;2.50;;;1.85;;
56269;SDS011;42176;43.240;27.880;2023-12-20T04:05:14;4.82;;;2.88;;
56269;SDS011;42176;43.240;27.880;2023-12-20T04:07:15;6.63;;;3.10;;
56269;SDS011;42176;43.240;27.880;2023-12-20T04:09:15;4.68;;;3.08;;
56269;SDS011;42176;43.240;27.880;2023-12-20T04:11:16;6.80;;;2.47;;
56269;SDS011;42176;43.240;27.880;2023-12-20T04:13:16;4.85;;;3.30;;
56269;SDS011;42176;43.240;27.880;2023-12-20T04:15:17;3.60;;;2.33;;
56269;SDS011;42176;43.240;27.880;2023-12-20T04:17:18;15.20;;;6.07;;
56269;SDS011;42176;43.240;27.880;2023-12-20T04:19:19;11.57;;;4.83;;
56269;SDS011;42176;43.240;27.880;2023-12-20T04:21:19;2.83;;;1.80;;
56269;SDS011;42176;43.240;27.880;2023-12-20T04:23:20;3.67;;;2.83;;
56269;SDS011;42176;43.240;27.880;2023-12-20T04:25:20;4.25;;;2.40;;
56269;SDS011;42176;43.240;27.880;2023-12-20T04:27:21;16.77;;;7.90;;
56269;SDS011;42176;43.240;27.880;2023-12-20T04:29:21;14.25;;;7.28;;
56269;SDS011;42176;43.240;27.880;2023-12-20T04:31:22;13.65;;;6.15;;
56269;SDS011;42176;43.240;27.880;2023-12-20T04:33:22;20.17;;;7.53;;
56269;SDS011;42176;43.240;27.880;2023-12-20T04:35:23;10.75;;;4.65;;
56269;SDS011;42176;43.240;27.880;2023-12-20T04:37:24;10.40;;;4.88;;
56269;SDS011;42176;43.240;27.880;2023-12-20T04:39:25;5.72;;;3.78;;
56269;SDS011;42176;43.240;27.880;2023-12-20T04:41:26;7.07;;;3.83;;
56269;SDS011;42176;43.240;27.880;2023-12-20T04:43:27;6.18;;;3.47;;
56269;SDS011;42176;43.240;27.880;2023-12-20T04:47:30;2.90;;;2.20;;
56269;SDS011;42176;43.240;27.880;2023-12-20T04:49:30;6.63;;;3.15;;
56269;SDS011;42176;43.240;27.880;2023-12-20T04:51:34;9.07;;;4.47;;
56269;SDS011;42176;43.240;27.880;2023-12-20T04:53:35;10.00;;;5.45;;
56269;SDS011;42176;43.240;27.880;2023-12-20T04:55:35;7.15;;;4.03;;
56269;SDS011;42176;43.240;27.880;2023-12-20T04:57:36;3.22;;;2.70;;
56269;SDS011;42176;43.240;27.880;2023-12-20T04:59:37;4.78;;;3.13;;
56269;SDS011;42176;43.240;27.880;2023-12-20T05:01:37;8.63;;;4.00;;
56269;SDS011;42176;43.240;27.880;2023-12-20T05:03:38;5.53;;;3.65;;
56269;SDS011;42176;43.240;27.880;2023-12-20T05:05:38;11.60;;;6.00;;
56269;SDS011;42176;43.240;27.880;2023-12-20T05:07:39;21.67;;;8.63;;
56269;SDS011;42176;43.240;27.880;2023-12-20T05:09:40;18.73;;;6.75;;
56269;SDS011;42176;43.240;27.880;2023-12-20T05:11:41;10.02;;;6.57;;
56269;SDS011;42176;43.240;27.880;2023-12-20T05:16:01;6.78;;;3.75;;
56269;SDS011;42176;43.240;27.880;2023-12-20T05:18:02;9.20;;;4.25;;
56269;SDS011;42176;43.240;27.880;2023-12-20T05:20:02;6.93;;;3.25;;
56269;SDS011;42176;43.240;27.880;2023-12-20T05:22:03;5.80;;;3.25;;
56269;SDS011;42176;43.240;27.880;2023-12-20T05:24:04;3.97;;;2.42;;
56269;SDS011;42176;43.240;27.880;2023-12-20T05:26:05;6.82;;;4.15;;
56269;SDS011;42176;43.240;27.880;2023-12-20T05:28:06;9.38;;;4.93;;
56269;SDS011;42176;43.240;27.880;2023-12-20T05:30:07;14.85;;;7.85;;
56269;SDS011;42176;43.240;27.880;2023-12-20T05:32:07;9.98;;;5.45;;
56269;SDS011;42176;43.240;27.880;2023-12-20T05:34:08;9.80;;;4.40;;
56269;SDS011;42176;43.240;27.880;2023-12-20T05:36:09;13.18;;;7.28;;
56269;SDS011;42176;43.240;27.880;2023-12-20T05:38:11;10.35;;;6.35;;
56269;SDS011;42176;43.240;27.880;2023-12-20T05:40:11;6.82;;;4.97;;
56269;SDS011;42176;43.240;27.880;2023-12-20T05:42:12;9.80;;;5.47;;
56269;SDS011;42176;43.240;27.880;2023-12-20T05:44:13;7.38;;;4.03;;
56269;SDS011;42176;43.240;27.880;2023-12-20T05:46:13;5.10;;;3.45;;
56269;SDS011;42176;43.240;27.880;2023-12-20T05:48:14;6.70;;;3.88;;
56269;SDS011;42176;43.240;27.880;2023-12-20T05:50:15;4.40;;;3.05;;
56269;SDS011;42176;43.240;27.880;2023-12-20T05:52:15;4.47;;;2.75;;
56269;SDS011;42176;43.240;27.880;2023-12-20T05:54:16;4.45;;;2.38;;
56269;SDS011;42176;43.240;27.880;2023-12-20T05:56:16;5.68;;;2.90;;
56269;SDS011;42176;43.240;27.880;2023-12-20T05:58:17;6.30;;;3.67;;
56269;SDS011;42176;43.240;27.880;2023-12-20T06:00:17;6.33;;;3.30;;
56269;SDS011;42176;43.240;27.880;2023-12-20T06:02:18;1.58;;;1.45;;
56269;SDS011;42176;43.240;27.880;2023-12-20T06:04:19;2.67;;;2.42;;
56269;SDS011;42176;43.240;27.880;2023-12-20T06:06:19;5.17;;;2.70;;
56269;SDS011;42176;43.240;27.880;2023-12-20T06:08:20;2.17;;;1.97;;
56269;SDS011;42176;43.240;27.880;2023-12-20T06:10:20;2.83;;;2.27;;
56269;SDS011;42176;43.240;27.880;2023-12-20T06:12:22;1.45;;;1.27;;
56269;SDS011;42176;43.240;27.880;2023-12-20T06:14:22;2.83;;;1.73;;
56269;SDS011;42176;43.240;27.880;2023-12-20T06:16:23;8.07;;;1.83;;
56269;SDS011;42176;43.240;27.880;2023-12-20T06:18:23;8.07;;;2.50;;
56269;SDS011;42176;43.240;27.880;2023-12-20T06:20:24;2.13;;;1.93;;
56269;SDS011;42176;43.240;27.880;2023-12-20T06:22:25;7.47;;;2.60;;
56269;SDS011;42176;43.240;27.880;2023-12-20T06:24:25;5.43;;;2.58;;
56269;SDS011;42176;43.240;27.880;2023-12-20T06:26:28;2.90;;;1.75;;
56269;SDS011;42176;43.240;27.880;2023-12-20T06:28:28;3.58;;;3.25;;
56269;SDS011;42176;43.240;27.880;2023-12-20T06:30:29;12.27;;;5.57;;
56269;SDS011;42176;43.240;27.880;2023-12-20T06:32:29;15.87;;;5.53;;
56269;SDS011;42176;43.240;27.880;2023-12-20T06:34:30;9.33;;;5.43;;
56269;SDS011;42176;43.240;27.880;2023-12-20T06:36:30;7.67;;;5.13;;
56269;SDS011;42176;43.240;27.880;2023-12-20T06:38:31;13.10;;;5.43;;
56269;SDS011;42176;43.240;27.880;2023-12-20T06:40:32;13.93;;;5.03;;
56269;SDS011;42176;43.240;27.880;2023-12-20T06:42:32;8.33;;;3.80;;
56269;SDS011;42176;43.240;27.880;2023-12-20T06:44:33;7.27;;;3.20;;
56269;SDS011;42176;43.240;27.880;2023-12-20T06:46:34;7.38;;;3.00;;
56269;SDS011;42176;43.240;27.880;2023-12-20T06:48:35;8.03;;;3.30;;
56269;SDS011;42176;43.240;27.880;2023-12-20T06:50:36;15.67;;;3.40;;
56269;SDS011;42176;43.240;27.880;2023-12-20T06:52:40;4.38;;;2.95;;
56269;SDS011;42176;43.240;27.880;2023-12-20T06:54:40;3.37;;;2.87;;
56269;SDS011;42176;43.240;27.880;2023-12-20T06:56:41;8.38;;;3.17;;
56269;SDS011;42176;43.240;27.880;2023-12-20T06:58:42;12.53;;;4.07;;
56269;SDS011;42176;43.240;27.880;2023-12-20T07:00:42;7.33;;;4.57;;
56269;SDS011;42176;43.240;27.880;2023-12-20T07:02:43;13.60;;;6.43;;
56269;SDS011;42176;43.240;27.880;2023-12-20T07:04:44;8.55;;;5.00;;
56269;SDS011;42176;43.240;27.880;2023-12-20T07:06:44;5.83;;;4.23;;
56269;SDS011;42176;43.240;27.880;2023-12-20T07:08:45;11.57;;;4.10;;
56269;SDS011;42176;43.240;27.880;2023-12-20T07:10:45;13.60;;;5.30;;
56269;SDS011;42176;43.240;27.880;2023-12-20T07:12:46;18.13;;;5.33;;
56269;SDS011;42176;43.240;27.880;2023-12-20T07:14:48;16.45;;;5.93;;
56269;SDS011;42176;43.240;27.880;2023-12-20T07:16:49;9.77;;;5.60;;
56269;SDS011;42176;43.240;27.880;2023-12-20T07:18:50;5.38;;;2.45;;
56269;SDS011;42176;43.240;27.880;2023-12-20T07:20:52;5.55;;;4.05;;
56269;SDS011;42176;43.240;27.880;2023-12-20T07:22:54;5.63;;;4.50;;
56269;SDS011;42176;43.240;27.880;2023-12-20T07:24:55;17.40;;;8.53;;
56269;SDS011;42176;43.240;27.880;2023-12-20T07:26:55;12.50;;;5.93;;
56269;SDS011;42176;43.240;27.880;2023-12-20T07:28:56;13.50;;;6.33;;
56269;SDS011;42176;43.240;27.880;2023-12-20T07:30:58;18.35;;;6.22;;
56269;SDS011;42176;43.240;27.880;2023-12-20T07:32:59;14.23;;;7.93;;
56269;SDS011;42176;43.240;27.880;2023-12-20T07:35:01;16.25;;;6.10;;
56269;SDS011;42176;43.240;27.880;2023-12-20T07:37:03;22.48;;;7.10;;
56269;SDS011;42176;43.240;27.880;2023-12-20T07:39:04;7.43;;;4.07;;
56269;SDS011;42176;43.240;27.880;2023-12-20T07:41:05;8.20;;;4.70;;
56269;SDS011;42176;43.240;27.880;2023-12-20T07:43:05;13.57;;;5.70;;
56269;SDS011;42176;43.240;27.880;2023-12-20T07:45:06;16.77;;;9.37;;
56269;SDS011;42176;43.240;27.880;2023-12-20T07:47:07;9.10;;;4.85;;
56269;SDS011;42176;43.240;27.880;2023-12-20T07:49:07;12.77;;;6.10;;
56269;SDS011;42176;43.240;27.880;2023-12-20T07:51:08;7.78;;;5.15;;
56269;SDS011;42176;43.240;27.880;2023-12-20T07:53:10;10.77;;;3.80;;
56269;SDS011;42176;43.240;27.880;2023-12-20T07:55:10;10.13;;;4.68;;
56269;SDS011;42176;43.240;27.880;2023-12-20T07:57:11;10.63;;;4.53;;
56269;SDS011;42176;43.240;27.880;2023-12-20T07:59:12;9.93;;;4.88;;
56269;SDS011;42176;43.240;27.880;2023-12-20T08:01:13;10.45;;;4.38;;
56269;SDS011;42176;43.240;27.880;2023-12-20T08:03:15;5.55;;;3.97;;
56269;SDS011;42176;43.240;27.880;2023-12-20T08:05:16;7.35;;;4.28;;
56269;SDS011;42176;43.240;27.880;2023-12-20T08:07:17;8.83;;;4.00;;
56269;SDS011;42176;43.240;27.880;2023-12-20T08:09:17;5.53;;;3.80;;
56269;SDS011;42176;43.240;27.880;2023-12-20T08:11:18;8.15;;;4.00;;
56269;SDS011;42176;43.240;27.880;2023-12-20T08:13:19;6.85;;;4.55;;
56269;SDS011;42176;43.240;27.880;2023-12-20T08:15:19;5.07;;;3.42;;
56269;SDS011;42176;43.240;27.880;2023-12-20T08:17:20;6.67;;;4.00;;
56269;SDS011;42176;43.240;27.880;2023-12-20T08:19:20;7.47;;;3.63;;
56269;SDS011;42176;43.240;27.880;2023-12-20T08:21:21;8.07;;;4.60;;
56269;SDS011;42176;43.240;27.880;2023-12-20T08:25:23;13.43;;;3.83;;
56269;SDS011;42176;43.240;27.880;2023-12-20T08:27:24;8.13;;;4.07;;
56269;SDS011;42176;43.240;27.880;2023-12-20T08:29:25;5.82;;;3.40;;
56269;SDS011;42176;43.240;27.880;2023-12-20T08:31:26;4.10;;;3.27;;
56269;SDS011;42176;43.240;27.880;2023-12-20T08:33:27;10.30;;;3.77;;
56269;SDS011;42176;43.240;27.880;2023-12-20T08:35:27;4.97;;;3.53;;
56269;SDS011;42176;43.240;27.880;2023-12-20T08:37:28;9.63;;;4.37;;
56269;SDS011;42176;43.240;27.880;2023-12-20T08:39:30;7.43;;;3.53;;
56269;SDS011;42176;43.240;27.880;2023-12-20T08:41:30;12.83;;;4.07;;
56269;SDS011;42176;43.240;27.880;2023-12-20T08:43:31;13.60;;;4.70;;
56269;SDS011;42176;43.240;27.880;2023-12-20T08:45:32;5.10;;;3.72;;
56269;SDS011;42176;43.240;27.880;2023-12-20T08:47:32;6.70;;;3.60;;
56269;SDS011;42176;43.240;27.880;2023-12-20T08:49:33;7.87;;;2.70;;
56269;SDS011;42176;43.240;27.880;2023-12-20T08:51:33;2.40;;;2.20;;
56269;SDS011;42176;43.240;27.880;2023-12-20T08:53:34;4.47;;;2.93;;
56269;SDS011;42176;43.240;27.880;2023-12-20T08:55:35;4.57;;;1.97;;
56269;SDS011;42176;43.240;27.880;2023-12-20T08:57:36;3.87;;;2.40;;
56269;SDS011;42176;43.240;27.880;2023-12-20T08:59:37;6.93;;;3.85;;
56269;SDS011;42176;43.240;27.880;2023-12-20T09:01:37;11.97;;;3.00;;
56269;SDS011;42176;43.240;27.880;2023-12-20T09:03:38;3.57;;;2.60;;
56269;SDS011;42176;43.240;27.880;2023-12-20T09:05:39;5.63;;;3.15;;
56269;SDS011;42176;43.240;27.880;2023-12-20T09:07:40;8.90;;;3.33;;
56269;SDS011;42176;43.240;27.880;2023-12-20T09:09:41;7.10;;;3.13;;
56269;SDS011;42176;43.240;27.880;2023-12-20T09:11:41;5.90;;;3.17;;
56269;SDS011;42176;43.240;27.880;2023-12-20T09:13:42;12.67;;;3.87;;
56269;SDS011;42176;43.240;27.880;2023-12-20T09:17:44;16.73;;;4.20;;
56269;SDS011;42176;43.240;27.880;2023-12-20T09:19:45;9.20;;;3.73;;
56269;SDS011;42176;43.240;27.880;2023-12-20T09:21:45;5.97;;;3.57;;
56269;SDS011;42176;43.240;27.880;2023-12-20T09:23:46;7.50;;;3.60;;
56269;SDS011;42176;43.240;27.880;2023-12-20T09:25:46;6.20;;;3.13;;
56269;SDS011;42176;43.240;27.880;2023-12-20T09:27:47;8.70;;;3.37;;
56269;SDS011;42176;43.240;27.880;2023-12-20T09:29:47;13.40;;;3.80;;
56269;SDS011;42176;43.240;27.880;2023-12-20T09:31:48;5.30;;;3.53;;
56269;SDS011;42176;43.240;27.880;2023-12-20T09:33:50;7.22;;;4.20;;
56269;SDS011;42176;43.240;27.880;2023-12-20T09:35:50;15.63;;;3.30;;
56269;SDS011;42176;43.240;27.880;2023-12-20T09:37:51;10.43;;;6.03;;
56269;SDS011;42176;43.240;27.880;2023-12-20T09:39:51;8.10;;;3.63;;
56269;SDS011;42176;43.240;27.880;2023-12-20T09:42:01;7.20;;;2.77;;
56269;SDS011;42176;43.240;27.880;2023-12-20T09:46:05;4.38;;;2.95;;
56269;SDS011;42176;43.240;27.880;2023-12-20T09:48:07;10.90;;;3.75;;
56269;SDS011;42176;43.240;27.880;2023-12-20T09:50:10;8.63;;;4.00;;
56269;SDS011;42176;43.240;27.880;2023-12-20T09:52:13;4.88;;;3.45;;
56269;SDS011;42176;43.240;27.880;2023-12-20T09:54:19;6.88;;;4.13;;
56269;SDS011;42176;43.240;27.880;2023-12-20T09:56:20;7.63;;;3.70;;
56269;SDS011;42176;43.240;27.880;2023-12-20T09:58:22;8.05;;;3.30;;
56269;SDS011;42176;43.240;27.880;2023-12-20T10:00:22;7.97;;;3.87;;
56269;SDS011;42176;43.240;27.880;2023-12-20T10:02:24;5.97;;;3.33;;
56269;SDS011;42176;43.240;27.880;2023-12-20T10:04:29;3.75;;;2.72;;
56269;SDS011;42176;43.240;27.880;2023-12-20T10:06:32;5.28;;;3.40;;
56269;SDS011;42176;43.240;27.880;2023-12-20T10:08:32;3.90;;;2.43;;
56269;SDS011;42176;43.240;27.880;2023-12-20T10:10:33;3.17;;;2.60;;
56269;SDS011;42176;43.240;27.880;2023-12-20T10:12:34;5.17;;;3.27;;
56269;SDS011;42176;43.240;27.880;2023-12-20T10:14:34;4.17;;;2.53;;
56269;SDS011;42176;43.240;27.880;2023-12-20T10:16:35;6.83;;;2.63;;
56269;SDS011;42176;43.240;27.880;2023-12-20T10:18:35;12.13;;;2.77;;
56269;SDS011;42176;43.240;27.880;2023-12-20T10:20:36;4.27;;;2.40;;
56269;SDS011;42176;43.240;27.880;2023-12-20T10:22:37;6.80;;;2.97;;
56269;SDS011;42176;43.240;27.880;2023-12-20T10:24:39;5.25;;;2.80;;
56269;SDS011;42176;43.240;27.880;2023-12-20T10:26:40;4.22;;;2.58;;
56269;SDS011;42176;43.240;27.880;2023-12-20T10:28:40;5.97;;;2.57;;
56269;SDS011;42176;43.240;27.880;2023-12-20T10:30:41;4.40;;;2.63;;
56269;SDS011;42176;43.240;27.880;2023-12-20T10:32:42;8.47;;;3.33;;
56269;SDS011;42176;43.240;27.880;2023-12-20T10:34:42;5.47;;;3.03;;
56269;SDS011;42176;43.240;27.880;2023-12-20T10:36:43;5.07;;;3.03;;
56269;SDS011;42176;43.240;27.880;2023-12-20T10:38:44;9.18;;;2.67;;
56269;SDS011;42176;43.240;27.880;2023-12-20T10:40:48;6.07;;;2.85;;
56269;SDS011;42176;43.240;27.880;2023-12-20T10:42:49;5.90;;;3.40;;
56269;SDS011;42176;43.240;27.880;2023-12-20T10:44:51;5.82;;;3.80;;
56269;SDS011;42176;43.240;27.880;2023-12-20T10:46:53;8.18;;;3.30;;
56269;SDS011;42176;43.240;27.880;2023-12-20T10:48:58;4.15;;;2.72;;
56269;SDS011;42176;43.240;27.880;2023-12-20T10:51:02;3.67;;;2.67;;
56269;SDS011;42176;43.240;27.880;2023-12-20T10:53:04;6.18;;;2.90;;
56269;SDS011;42176;43.240;27.880;2023-12-20T10:55:05;6.83;;;3.23;;
56269;SDS011;42176;43.240;27.880;2023-12-20T10:57:06;4.45;;;2.72;;
56269;SDS011;42176;43.240;27.880;2023-12-20T10:59:07;12.07;;;3.03;;
56269;SDS011;42176;43.240;27.880;2023-12-20T11:01:12;6.97;;;3.40;;
56269;SDS011;42176;43.240;27.880;2023-12-20T11:03:15;8.80;;;3.50;;
56269;SDS011;42176;43.240;27.880;2023-12-20T11:07:34;10.65;;;3.88;;
56269;SDS011;42176;43.240;27.880;2023-12-20T11:09:40;8.07;;;3.78;;
56269;SDS011;42176;43.240;27.880;2023-12-20T11:14:13;10.90;;;5.60;;
56269;SDS011;42176;43.240;27.880;2023-12-20T11:16:17;10.55;;;3.90;;
56269;SDS011;42176;43.240;27.880;2023-12-20T11:18:18;5.80;;;3.50;;
56269;SDS011;42176;43.240;27.880;2023-12-20T11:20:18;7.00;;;3.10;;
56269;SDS011;42176;43.240;27.880;2023-12-20T11:22:22;6.50;;;3.57;;
56269;SDS011;42176;43.240;27.880;2023-12-20T11:24:25;9.52;;;3.50;;
56269;SDS011;42176;43.240;27.880;2023-12-20T11:26:29;7.13;;;3.70;;
56269;SDS011;42176;43.240;27.880;2023-12-20T11:28:30;5.57;;;2.65;;
56269;SDS011;42176;43.240;27.880;2023-12-20T11:30:40;15.00;;;2.93;;
56269;SDS011;42176;43.240;27.880;2023-12-20T11:32:51;4.55;;;3.30;;
56269;SDS011;42176;43.240;27.880;2023-12-20T11:34:51;2.30;;;2.10;;
56269;SDS011;42176;43.240;27.880;2023-12-20T11:36:58;4.70;;;3.05;;
56269;SDS011;42176;43.240;27.880;2023-12-20T11:39:00;7.05;;;2.90;;
56269;SDS011;42176;43.240;27.880;2023-12-20T11:41:00;8.43;;;3.80;;
56269;SDS011;42176;43.240;27.880;2023-12-20T11:43:04;11.52;;;3.60;;
56269;SDS011;42176;43.240;27.880;2023-12-20T11:45:09;8.20;;;3.08;;
56269;SDS011;42176;43.240;27.880;2023-12-20T11:47:10;9.13;;;3.85;;
56269;SDS011;42176;43.240;27.880;2023-12-20T11:49:12;2.58;;;2.25;;
56269;SDS011;42176;43.240;27.880;2023-12-20T11:51:12;9.43;;;3.33;;
56269;SDS011;42176;43.240;27.880;2023-12-20T11:53:13;10.15;;;4.20;;
56269;SDS011;42176;43.240;27.880;2023-12-20T11:55:14;10.27;;;4.37;;
56269;SDS011;42176;43.240;27.880;2023-12-20T11:57:15;8.50;;;3.00;;
56269;SDS011;42176;43.240;27.880;2023-12-20T11:59:15;4.77;;;3.20;;
56269;SDS011;42176;43.240;27.880;2023-12-20T12:01:16;5.50;;;3.27;;
56269;SDS011;42176;43.240;27.880;2023-12-20T12:03:17;3.80;;;2.77;;
56269;SDS011;42176;43.240;27.880;2023-12-20T12:05:18;10.68;;;4.50;;
56269;SDS011;42176;43.240;27.880;2023-12-20T12:09:20;8.40;;;4.30;;
56269;SDS011;42176;43.240;27.880;2023-12-20T12:11:21;7.73;;;3.63;;
56269;SDS011;42176;43.240;27.880;2023-12-20T12:15:23;10.68;;;4.38;;
56269;SDS011;42176;43.240;27.880;2023-12-20T12:17:23;15.87;;;4.30;;